createdAt,value
2023-04-10T00:00:30.931Z,70.3688
2023-04-10T00:01:34.152Z,70.3986
2023-04-10T00:02:37.533Z,70.4819
2023-04-10T00:03:41.140Z,70.5225
2023-04-10T00:04:44.477Z,70.6224
2023-04-10T00:05:47.675Z,70.6278
2023-04-10T00:06:47.885Z,70.7309
2023-04-10T00:07:51.102Z,70.9173
2023-04-10T00:08:54.471Z,71.0722
2023-04-10T00:09:57.681Z,71.1210
2023-04-10T00:11:00.897Z,71.1186
2023-04-10T00:12:04.107Z,71.2332
2023-04-10T00:13:07.379Z,71.3323
2023-04-10T00:14:10.578Z,71.4523
2023-04-10T00:15:13.800Z,71.4499
2023-04-10T00:16:17.056Z,71.4553
2023-04-10T00:17:20.382Z,71.4894
2023-04-10T00:18:23.593Z,71.6201
2023-04-10T00:19:26.825Z,71.7311
2023-04-10T00:20:30.019Z,71.8632
2023-04-10T00:21:33.239Z,71.8603
2023-04-10T00:22:36.441Z,71.9240
2023-04-10T00:23:39.691Z,72.0157
2023-04-10T00:24:42.919Z,72.0463
2023-04-10T00:25:46.140Z,72.2169
2023-04-10T00:26:49.362Z,72.2986
2023-04-10T00:27:52.607Z,72.3841
2023-04-10T00:28:55.815Z,72.5353
2023-04-10T00:29:59.026Z,72.6404
2023-04-10T00:31:02.266Z,72.7275
2023-04-10T00:32:05.499Z,72.8052
2023-04-10T00:33:08.708Z,72.8934
2023-04-10T00:34:12.101Z,72.9284
2023-04-10T00:35:15.318Z,72.9361
2023-04-10T00:36:18.540Z,72.8946
2023-04-10T00:37:21.771Z,72.9590
2023-04-10T00:38:24.993Z,73.0560
2023-04-10T00:39:28.202Z,73.1910
2023-04-10T00:40:28.412Z,73.3070
2023-04-10T00:41:28.392Z,73.3768
2023-04-10T00:42:31.663Z,73.4157
2023-04-10T00:43:34.882Z,73.4472
2023-04-10T00:44:38.163Z,73.5403
2023-04-10T00:45:41.497Z,73.5823
2023-04-10T00:46:44.738Z,73.6843
2023-04-10T00:47:48.031Z,73.7809
2023-04-10T00:48:51.326Z,73.8903
2023-04-10T00:49:54.604Z,73.9285
2023-04-10T00:50:57.855Z,73.9673
2023-04-10T00:51:58.527Z,74.0548
2023-04-10T00:52:58.473Z,74.1390
2023-04-10T00:54:01.784Z,74.1822
2023-04-10T00:55:05.066Z,74.1937
2023-04-10T00:56:08.324Z,74.2021
2023-04-10T00:57:11.758Z,74.2199
2023-04-10T00:58:14.972Z,74.2859
2023-04-10T00:59:18.259Z,74.3374
2023-04-10T01:00:21.492Z,74.3347
2023-04-10T01:01:21.561Z,74.3570
2023-04-10T01:02:24.919Z,74.3135
2023-04-10T01:03:25.098Z,74.3801
2023-04-10T01:04:25.095Z,74.4207
2023-04-10T01:05:28.423Z,74.4735
2023-04-10T01:06:31.706Z,74.5850
2023-04-10T01:07:34.958Z,74.6350
2023-04-10T01:08:38.240Z,74.6775
2023-04-10T01:09:38.246Z,74.7696
2023-04-10T01:10:41.527Z,74.9156
2023-04-10T01:11:41.517Z,75.0515
2023-04-10T01:12:44.793Z,75.2165
2023-04-10T01:13:44.888Z,75.2771
2023-04-10T01:14:48.139Z,75.3940
2023-04-10T01:15:51.425Z,75.4319
2023-04-10T01:16:54.751Z,75.4841
2023-04-10T01:17:58.003Z,75.5856
2023-04-10T01:19:01.262Z,75.6964
2023-04-10T01:20:04.514Z,75.6762
2023-04-10T01:21:07.770Z,75.7054
2023-04-10T01:22:11.072Z,75.8551
2023-04-10T01:23:14.304Z,75.8270
2023-04-10T01:24:17.599Z,75.8496
2023-04-10T01:25:20.826Z,75.9488
2023-04-10T01:26:24.104Z,76.0131
2023-04-10T01:27:27.372Z,76.0482
2023-04-10T01:28:30.637Z,76.0349
2023-04-10T01:29:33.903Z,76.0398
2023-04-10T01:30:37.250Z,76.0825
2023-04-10T01:31:37.310Z,76.0808
2023-04-10T01:32:40.612Z,75.9930
2023-04-10T01:33:43.878Z,76.0084
2023-04-10T01:34:47.137Z,76.1701
2023-04-10T01:35:50.437Z,76.2276
2023-04-10T01:36:50.563Z,76.2721
2023-04-10T01:37:53.842Z,76.3415
2023-04-10T01:38:57.104Z,76.4113
2023-04-10T01:40:00.379Z,76.4473
2023-04-10T01:41:03.668Z,76.6161
2023-04-10T01:42:06.940Z,76.7619
2023-04-10T01:43:10.232Z,76.8885
2023-04-10T01:44:13.510Z,76.8908
2023-04-10T01:45:16.750Z,76.9469
2023-04-10T01:46:20.010Z,77.0577
2023-04-10T01:47:23.282Z,77.2005
2023-04-10T01:48:26.520Z,77.2378
2023-04-10T01:49:29.788Z,77.4216
2023-04-10T01:50:33.048Z,77.4936
2023-04-10T01:51:36.329Z,77.5274
2023-04-10T01:52:39.625Z,77.5834
2023-04-10T01:53:42.894Z,77.6366
2023-04-10T01:54:46.114Z,77.6565
2023-04-10T01:55:49.396Z,77.6363
2023-04-10T01:56:52.641Z,77.7382
2023-04-10T01:57:55.945Z,77.8151
2023-04-10T01:58:59.401Z,77.7244
2023-04-10T02:00:02.648Z,77.6588
2023-04-10T02:01:05.911Z,77.7336
2023-04-10T02:02:06.045Z,77.7973
2023-04-10T02:03:09.575Z,77.7968
2023-04-10T02:04:09.738Z,77.8555
2023-04-10T02:05:21.625Z,77.8708
2023-04-10T02:06:14.660Z,77.8401
2023-04-10T02:07:17.904Z,77.9449
2023-04-10T02:08:21.225Z,77.9145
2023-04-10T02:09:24.449Z,77.9990
2023-04-10T02:10:27.779Z,77.9421
2023-04-10T02:11:31.044Z,78.0150
2023-04-10T02:12:34.269Z,78.1180
2023-04-10T02:13:37.685Z,78.1804
2023-04-10T02:14:40.933Z,78.2874
2023-04-10T02:15:44.225Z,78.3518
2023-04-10T02:16:44.254Z,78.4545
2023-04-10T02:17:47.545Z,78.4059
2023-04-10T02:18:50.787Z,78.4015
2023-04-10T02:19:54.068Z,78.4009
2023-04-10T02:20:57.300Z,78.3781
2023-04-10T02:22:00.555Z,78.3145
2023-04-10T02:23:04.069Z,78.2830
2023-04-10T02:24:03.868Z,78.2416
2023-04-10T02:25:07.095Z,78.2033
2023-04-10T02:26:10.837Z,78.1926
2023-04-10T02:27:10.553Z,78.2665
2023-04-10T02:28:13.798Z,78.3319
2023-04-10T02:29:17.036Z,78.2704
2023-04-10T02:30:20.274Z,78.3222
2023-04-10T02:31:23.545Z,78.4104
2023-04-10T02:32:26.904Z,78.4437
2023-04-10T02:33:30.140Z,78.5400
2023-04-10T02:34:33.431Z,78.5508
2023-04-10T02:35:37.179Z,78.5182
2023-04-10T02:36:37.205Z,78.4421
2023-04-10T02:37:37.161Z,78.5421
2023-04-10T02:38:37.070Z,78.5085
2023-04-10T02:39:40.366Z,78.5973
2023-04-10T02:40:43.600Z,78.5574
2023-04-10T02:41:46.882Z,78.6349
2023-04-10T02:42:50.118Z,78.6961
2023-04-10T02:43:53.617Z,78.7349
2023-04-10T02:44:53.596Z,78.8177
2023-04-10T02:45:56.872Z,78.7893
2023-04-10T02:47:00.923Z,78.8363
2023-04-10T02:48:00.703Z,78.8553
2023-04-10T02:49:03.943Z,78.9409
2023-04-10T02:50:07.209Z,79.0229
2023-04-10T02:51:10.483Z,79.1014
2023-04-10T02:52:13.711Z,79.0759
2023-04-10T02:53:16.946Z,79.0419
2023-04-10T02:54:17.029Z,79.0107
2023-04-10T02:55:20.300Z,79.0166
2023-04-10T02:56:23.526Z,79.0923
2023-04-10T02:57:26.801Z,79.0956
2023-04-10T02:58:30.050Z,79.1631
2023-04-10T02:59:33.288Z,79.1607
2023-04-10T03:00:36.522Z,79.1716
2023-04-10T03:01:40.075Z,79.1955
2023-04-10T03:02:43.438Z,79.1846
2023-04-10T03:03:43.415Z,79.1909
2023-04-10T03:04:46.758Z,79.3014
2023-04-10T03:05:50.012Z,79.3577
2023-04-10T03:06:53.265Z,79.5088
2023-04-10T03:07:56.497Z,79.5141
2023-04-10T03:08:59.790Z,79.4389
2023-04-10T03:10:03.452Z,79.4507
2023-04-10T03:11:03.182Z,79.5131
2023-04-10T03:12:06.428Z,79.4969
2023-04-10T03:13:09.694Z,79.5883
2023-04-10T03:14:13.060Z,79.6965
2023-04-10T03:15:16.731Z,79.6963
2023-04-10T03:16:16.513Z,79.5995
2023-04-10T03:17:19.742Z,79.5596
2023-04-10T03:18:23.000Z,79.5033
2023-04-10T03:19:26.238Z,79.4608
2023-04-10T03:20:29.997Z,79.4704
2023-04-10T03:21:30.264Z,79.5007
2023-04-10T03:22:33.513Z,79.5381
2023-04-10T03:23:37.133Z,79.5939
2023-04-10T03:24:36.941Z,79.5543
2023-04-10T03:25:40.196Z,79.4046
2023-04-10T03:26:40.388Z,79.4151
2023-04-10T03:27:43.656Z,79.4700
2023-04-10T03:28:46.945Z,79.5326
2023-04-10T03:29:50.200Z,79.5695
2023-04-10T03:30:53.454Z,79.6245
2023-04-10T03:31:56.779Z,79.6452
2023-04-10T03:32:56.690Z,79.6321
2023-04-10T03:34:00.210Z,79.7055
2023-04-10T03:35:03.482Z,79.6885
2023-04-10T03:36:06.745Z,79.6736
2023-04-10T03:37:10.046Z,79.7909
2023-04-10T03:38:13.369Z,79.8410
2023-04-10T03:39:13.433Z,79.9032
2023-04-10T03:40:16.669Z,79.9830
2023-04-10T03:41:19.959Z,80.0900
2023-04-10T03:42:23.241Z,80.0722
2023-04-10T03:43:26.505Z,80.1864
2023-04-10T03:44:29.757Z,80.2854
2023-04-10T03:45:33.056Z,80.4991
2023-04-10T03:46:33.072Z,80.5101
2023-04-10T03:47:36.331Z,80.4405
2023-04-10T03:48:39.574Z,80.4251
2023-04-10T03:49:42.819Z,80.4442
2023-04-10T03:50:46.061Z,80.5646
2023-04-10T03:51:49.327Z,80.6359
2023-04-10T03:52:52.588Z,80.5723
2023-04-10T03:53:56.121Z,80.6780
2023-04-10T03:54:56.065Z,80.6867
2023-04-10T03:55:59.460Z,80.7429
2023-04-10T03:57:03.270Z,80.7481
2023-04-10T03:58:03.029Z,80.7000
2023-04-10T03:59:06.302Z,80.6706
2023-04-10T04:00:09.514Z,80.7290
2023-04-10T04:01:12.763Z,80.7277
2023-04-10T04:02:16.289Z,80.7037
2023-04-10T04:03:19.832Z,80.7257
2023-04-10T04:04:20.174Z,80.6744
2023-04-10T04:05:20.070Z,80.7275
2023-04-10T04:06:23.298Z,80.8355
2023-04-10T04:07:26.574Z,80.9110
2023-04-10T04:08:29.922Z,80.8773
2023-04-10T04:09:33.224Z,80.8758
2023-04-10T04:10:36.443Z,80.8274
2023-04-10T04:11:39.688Z,80.7475
2023-04-10T04:12:42.909Z,80.7237
2023-04-10T04:13:46.169Z,80.7884
2023-04-10T04:14:49.611Z,80.8627
2023-04-10T04:15:52.971Z,80.7982
2023-04-10T04:16:56.262Z,80.7693
2023-04-10T04:17:59.525Z,80.7949
2023-04-10T04:19:02.826Z,80.7717
2023-04-10T04:20:06.107Z,80.7864
2023-04-10T04:21:09.311Z,80.8409
2023-04-10T04:22:12.950Z,80.8266
2023-04-10T04:23:16.167Z,80.9521
2023-04-10T04:24:19.430Z,81.0950
2023-04-10T04:25:22.649Z,81.2157
2023-04-10T04:26:25.921Z,81.1194
2023-04-10T04:27:29.172Z,81.0727
2023-04-10T04:28:32.413Z,81.3085
2023-04-10T04:29:35.922Z,81.4911
2023-04-10T04:30:36.300Z,81.6365
2023-04-10T04:31:36.123Z,81.7437
2023-04-10T04:32:39.400Z,81.8922
2023-04-10T04:33:43.100Z,82.0421
2023-04-10T04:34:42.887Z,82.2232
2023-04-10T04:35:46.200Z,82.3983
2023-04-10T04:36:49.429Z,82.5649
2023-04-10T04:37:52.732Z,82.8255
2023-04-10T04:38:55.959Z,83.2542
2023-04-10T04:39:59.226Z,83.4495
2023-04-10T04:41:02.467Z,83.8232
2023-04-10T04:42:03.761Z,84.1469
2023-04-10T04:43:07.011Z,84.1355
2023-04-10T04:44:10.680Z,83.6340
2023-04-10T04:45:10.542Z,82.9026
2023-04-10T04:46:13.841Z,82.4347
2023-04-10T04:47:17.125Z,82.0202
2023-04-10T04:48:20.383Z,81.8635
2023-04-10T04:49:24.054Z,81.5795
2023-04-10T04:50:24.870Z,81.3183
2023-04-10T04:51:24.689Z,81.1360
2023-04-10T04:52:27.949Z,81.0221
2023-04-10T04:53:31.188Z,81.0980
2023-04-10T04:54:34.432Z,81.2500
2023-04-10T04:55:37.787Z,81.3416
2023-04-10T04:56:40.994Z,81.4416
2023-04-10T04:57:44.274Z,81.5440
2023-04-10T04:58:47.496Z,81.5739
2023-04-10T04:59:50.747Z,81.5713
2023-04-10T05:00:54.046Z,81.5544
2023-04-10T05:01:58.306Z,81.4492
2023-04-10T05:02:58.225Z,81.4576
2023-04-10T05:04:01.570Z,81.5099
2023-04-10T05:05:04.869Z,81.4738
2023-04-10T05:06:08.699Z,81.4584
2023-04-10T05:07:08.464Z,81.4022
2023-04-10T05:08:11.695Z,81.5042
2023-04-10T05:09:14.967Z,81.4889
2023-04-10T05:10:18.195Z,81.4955
2023-04-10T05:11:21.590Z,81.4315
2023-04-10T05:12:23.449Z,81.2758
2023-04-10T05:13:26.709Z,81.2682
2023-04-10T05:14:29.980Z,81.2245
2023-04-10T05:15:33.281Z,81.1627
2023-04-10T05:16:36.772Z,81.1090
2023-04-10T05:17:36.575Z,81.1059
2023-04-10T05:18:39.802Z,81.0832
2023-04-10T05:19:41.385Z,81.2333
2023-04-10T05:20:44.657Z,81.2401
2023-04-10T05:21:49.258Z,81.1543
2023-04-10T05:22:49.124Z,81.1641
2023-04-10T05:23:52.351Z,81.1322
2023-04-10T05:24:55.855Z,81.1210
2023-04-10T05:25:59.115Z,81.1438
2023-04-10T05:27:02.439Z,81.1273
2023-04-10T05:28:05.623Z,81.1254
2023-04-10T05:29:08.938Z,81.1279
2023-04-10T05:30:12.164Z,81.1789
2023-04-10T05:31:15.466Z,81.1023
2023-04-10T05:32:18.734Z,80.9886
2023-04-10T05:33:21.992Z,80.8549
2023-04-10T05:34:25.216Z,80.9463
2023-04-10T05:35:28.494Z,80.8696
2023-04-10T05:36:31.725Z,80.8955
2023-04-10T05:37:34.971Z,80.7998
2023-04-10T05:38:38.223Z,80.7373
2023-04-10T05:39:38.298Z,80.6740
2023-04-10T05:40:41.497Z,80.4946
2023-04-10T05:41:44.752Z,80.4255
2023-04-10T05:42:47.995Z,80.1965
2023-04-10T05:43:51.259Z,80.1316
2023-04-10T05:44:54.485Z,80.0804
2023-04-10T05:45:57.829Z,80.0625
2023-04-10T05:47:01.076Z,80.0281
2023-04-10T05:48:04.690Z,79.9554
2023-04-10T05:49:04.466Z,79.8146
2023-04-10T05:50:07.725Z,79.8416
2023-04-10T05:51:11.004Z,80.1135
2023-04-10T05:52:14.224Z,80.0419
2023-04-10T05:53:17.481Z,79.8321
2023-04-10T05:54:20.738Z,79.9012
2023-04-10T05:55:23.969Z,79.7819
2023-04-10T05:56:27.257Z,79.5956
2023-04-10T05:57:30.473Z,79.5804
2023-04-10T05:58:33.742Z,79.6380
2023-04-10T05:59:36.980Z,79.6226
2023-04-10T06:00:40.243Z,79.4142
2023-04-10T06:01:43.485Z,79.1184
2023-04-10T06:02:46.941Z,79.2052
2023-04-10T06:03:46.966Z,79.0587
2023-04-10T06:04:46.916Z,78.9963
2023-04-10T06:05:50.158Z,78.8883
2023-04-10T06:06:53.412Z,78.5958
2023-04-10T06:07:58.352Z,78.8803
2023-04-10T06:08:58.438Z,78.7847
2023-04-10T06:10:01.656Z,78.5080
2023-04-10T06:11:04.911Z,78.5483
2023-04-10T06:12:08.187Z,78.3547
2023-04-10T06:13:11.465Z,78.0845
2023-04-10T06:14:14.710Z,77.3441
2023-04-10T06:15:17.952Z,77.1468
2023-04-10T06:16:21.220Z,76.7000
2023-04-10T06:17:24.484Z,76.6233
2023-04-10T06:18:27.744Z,76.3902
2023-04-10T06:19:31.002Z,75.4329
2023-04-10T06:20:34.272Z,74.8322
2023-04-10T06:21:37.540Z,74.4734
2023-04-10T06:22:40.839Z,74.0536
2023-04-10T06:23:44.067Z,73.6901
2023-04-10T06:24:47.306Z,73.2321
2023-04-10T06:25:50.562Z,73.3778
2023-04-10T06:26:53.797Z,74.6623
2023-04-10T06:27:57.061Z,75.0424
2023-04-10T06:29:00.352Z,74.8499
2023-04-10T06:30:03.667Z,74.9009
2023-04-10T06:31:06.882Z,74.7391
2023-04-10T06:32:10.123Z,75.0090
2023-04-10T06:33:13.381Z,75.0581
2023-04-10T06:34:16.639Z,74.5830
2023-04-10T06:35:19.875Z,73.8134
2023-04-10T06:36:23.173Z,73.6434
2023-04-10T06:37:26.515Z,74.0926
2023-04-10T06:38:29.840Z,74.3137
2023-04-10T06:39:33.087Z,73.5126
2023-04-10T06:40:36.417Z,71.6903
2023-04-10T06:41:39.624Z,70.5960
2023-04-10T06:42:42.858Z,71.3748
2023-04-10T06:43:46.132Z,71.5249
2023-04-10T06:44:49.423Z,69.7066
2023-04-10T06:45:52.762Z,69.7740
2023-04-10T06:46:55.998Z,69.4570
2023-04-10T06:47:59.427Z,69.1591
2023-04-10T06:49:03.373Z,67.8006
2023-04-10T06:50:03.185Z,66.6298
2023-04-10T06:51:06.480Z,66.1766
2023-04-10T06:52:09.756Z,66.8115
2023-04-10T06:53:13.000Z,67.2413
2023-04-10T06:54:16.285Z,66.3186
2023-04-10T06:55:19.557Z,65.0720
2023-04-10T06:56:22.990Z,66.0283
2023-04-10T06:57:26.248Z,65.2015
2023-04-10T06:58:29.477Z,63.3242
2023-04-10T06:59:32.766Z,63.7222
2023-04-10T07:00:36.002Z,64.6888
2023-04-10T07:01:39.287Z,64.2433
2023-04-10T07:02:42.624Z,63.5303
2023-04-10T07:03:46.007Z,63.0841
2023-04-10T07:04:50.411Z,61.6139
2023-04-10T07:05:50.281Z,62.0141
2023-04-10T07:06:53.543Z,62.4230
2023-04-10T07:07:56.798Z,59.5644
2023-04-10T07:09:00.078Z,57.2678
2023-04-10T07:10:03.336Z,61.3218
2023-04-10T07:11:07.025Z,63.9914
2023-04-10T07:12:07.076Z,62.5644
2023-04-10T07:13:07.873Z,61.3090
2023-04-10T07:14:08.076Z,63.8406
2023-04-10T07:15:08.360Z,64.1659
2023-04-10T07:16:08.182Z,63.8342
2023-04-10T07:17:11.418Z,61.7115
2023-04-10T07:18:11.714Z,61.7835
2023-04-10T07:19:14.961Z,60.6701
2023-04-10T07:20:18.466Z,60.6333
2023-04-10T07:21:21.704Z,58.0058
2023-04-10T07:22:24.992Z,55.1579
2023-04-10T07:23:28.494Z,55.3730
2023-04-10T07:24:28.294Z,53.4750
2023-04-10T07:25:28.402Z,55.8652
2023-04-10T07:26:31.687Z,56.3322
2023-04-10T07:27:34.991Z,56.3701
2023-04-10T07:28:38.293Z,55.3864
2023-04-10T07:29:41.809Z,53.8343
2023-04-10T07:30:41.651Z,55.5828
2023-04-10T07:31:45.002Z,54.3077
2023-04-10T07:32:45.354Z,54.6873
2023-04-10T07:33:45.230Z,55.9096
2023-04-10T07:34:48.500Z,56.1413
2023-04-10T07:35:51.796Z,56.0479
2023-04-10T07:36:55.074Z,59.4497
2023-04-10T07:37:55.197Z,60.1889
2023-04-10T07:38:58.534Z,60.7528
2023-04-10T07:40:01.788Z,60.6912
2023-04-10T07:41:05.082Z,61.7885
2023-04-10T07:42:08.509Z,60.6431
2023-04-10T07:43:11.788Z,61.2520
2023-04-10T07:44:15.048Z,60.8984
2023-04-10T07:45:15.116Z,61.2320
2023-04-10T07:46:18.904Z,59.1833
2023-04-10T07:47:18.741Z,58.7700
2023-04-10T07:48:22.037Z,56.1357
2023-04-10T07:49:25.366Z,54.4880
2023-04-10T07:50:28.638Z,58.9237
2023-04-10T07:51:31.970Z,60.0005
2023-04-10T07:52:35.247Z,61.0541
2023-04-10T07:53:35.290Z,57.9181
2023-04-10T07:54:38.609Z,58.2587
2023-04-10T07:55:39.560Z,60.0625
2023-04-10T07:56:39.507Z,59.6023
2023-04-10T07:57:43.049Z,59.9725
2023-04-10T07:58:42.866Z,59.5276
2023-04-10T07:59:46.146Z,58.8576
2023-04-10T08:00:46.771Z,57.9371
2023-04-10T08:01:50.133Z,59.5716
2023-04-10T08:02:50.342Z,59.5389
2023-04-10T08:03:50.415Z,57.6165
2023-04-10T08:04:50.492Z,53.9341
2023-04-10T08:05:50.428Z,52.5593
2023-04-10T08:06:53.697Z,54.4138
2023-04-10T08:07:57.125Z,51.9597
2023-04-10T08:09:00.447Z,54.2817
2023-04-10T08:10:03.798Z,56.3187
2023-04-10T08:11:07.052Z,54.6265
2023-04-10T08:12:10.389Z,53.0556
2023-04-10T08:13:10.408Z,56.2200
2023-04-10T08:14:13.765Z,58.1847
2023-04-10T08:15:14.760Z,57.9088
2023-04-10T08:16:18.120Z,59.8096
2023-04-10T08:17:21.495Z,57.5725
2023-04-10T08:18:22.312Z,56.3053
2023-04-10T08:19:25.666Z,55.2579
2023-04-10T08:20:28.998Z,53.5835
2023-04-10T08:21:32.420Z,53.9368
2023-04-10T08:22:35.684Z,53.3343
2023-04-10T08:23:38.979Z,50.9202
2023-04-10T08:24:42.299Z,48.0552
2023-04-10T08:25:45.593Z,47.3105
2023-04-10T08:26:49.562Z,50.3621
2023-04-10T08:27:49.456Z,51.2262
2023-04-10T08:28:53.047Z,51.7530
2023-04-10T08:29:53.118Z,53.5111
2023-04-10T08:30:56.498Z,52.0603
2023-04-10T08:31:59.804Z,51.9148
2023-04-10T08:33:03.203Z,50.7880
2023-04-10T08:34:06.533Z,49.9789
2023-04-10T08:35:09.934Z,52.3712
2023-04-10T08:36:10.044Z,51.2866
2023-04-10T08:37:13.360Z,52.6802
2023-04-10T08:38:16.759Z,52.7708
2023-04-10T08:39:20.059Z,50.1122
2023-04-10T08:40:23.409Z,51.9821
2023-04-10T08:41:23.639Z,52.9295
2023-04-10T08:43:29.482Z,52.6014
2023-04-10T08:44:32.771Z,51.7003
2023-04-10T08:45:36.262Z,47.5238
2023-04-10T08:46:39.794Z,48.2363
2023-04-10T08:47:39.749Z,47.3695
2023-04-10T08:48:43.029Z,46.7835
2023-04-10T08:49:46.387Z,48.0177
2023-04-10T08:50:49.717Z,51.3234
2023-04-10T08:51:53.240Z,52.9007
2023-04-10T08:52:56.570Z,52.6706
2023-04-10T08:53:59.929Z,49.0176
2023-04-10T08:55:03.217Z,46.4698
2023-04-10T08:56:06.569Z,48.2421
2023-04-10T08:57:11.054Z,50.6683
2023-04-10T08:58:10.992Z,52.3728
2023-04-10T08:59:14.299Z,51.4398
2023-04-10T09:01:19.823Z,49.9452
2023-04-10T09:02:23.152Z,47.7390
2023-04-10T09:03:26.605Z,52.0851
2023-04-10T09:04:26.584Z,52.0732
2023-04-10T09:05:29.943Z,51.5980
2023-04-10T09:06:33.300Z,51.0811
2023-04-10T09:07:36.607Z,49.9467
2023-04-10T09:08:39.961Z,47.1829
2023-04-10T09:09:43.264Z,46.3320
2023-04-10T09:10:46.582Z,44.5783
2023-04-10T09:11:49.994Z,45.6197
2023-04-10T09:12:53.274Z,46.9990
2023-04-10T09:13:56.725Z,47.9352
2023-04-10T09:14:56.635Z,47.0810
2023-04-10T09:15:56.722Z,44.9996
2023-04-10T09:17:00.055Z,44.4918
2023-04-10T09:18:03.489Z,45.8122
2023-04-10T09:19:05.721Z,45.0475
2023-04-10T09:20:03.563Z,45.4842
2023-04-10T09:21:06.878Z,43.9957
2023-04-10T09:22:10.233Z,45.8718
2023-04-10T09:23:13.535Z,48.5649
2023-04-10T09:24:13.633Z,50.5065
2023-04-10T09:25:16.990Z,49.0738
2023-04-10T09:26:17.107Z,47.6103
2023-04-10T09:27:20.505Z,48.6239
2023-04-10T09:28:23.792Z,47.3963
2023-04-10T09:29:27.096Z,45.4340
2023-04-10T09:30:30.404Z,45.0518
2023-04-10T09:31:33.726Z,44.2279
2023-04-10T09:32:37.061Z,43.5071
2023-04-10T09:33:40.362Z,44.0143
2023-04-10T09:34:43.690Z,43.8895
2023-04-10T09:35:47.002Z,45.5940
2023-04-10T09:36:50.366Z,46.7222
2023-04-10T09:37:53.705Z,45.4618
2023-04-10T09:38:57.044Z,42.8356
2023-04-10T09:40:00.418Z,39.7438
2023-04-10T09:41:03.725Z,38.9011
2023-04-10T09:42:07.044Z,40.3137
2023-04-10T09:43:10.337Z,41.3680
2023-04-10T09:44:13.700Z,38.8707
2023-04-10T09:45:17.014Z,40.7801
2023-04-10T09:46:20.392Z,41.1274
2023-04-10T09:47:23.758Z,43.0177
2023-04-10T09:48:27.140Z,44.6816
2023-04-10T09:49:30.516Z,44.8012
2023-04-10T09:50:36.314Z,44.9308
2023-04-10T09:51:34.291Z,43.4898
2023-04-10T09:52:37.565Z,42.3243
2023-04-10T09:53:37.664Z,43.9564
2023-04-10T09:54:40.967Z,43.4224
2023-04-10T09:55:44.278Z,44.4830
2023-04-10T09:56:47.589Z,44.6701
2023-04-10T09:57:50.943Z,44.9896
2023-04-10T09:58:54.414Z,43.8588
2023-04-10T09:59:54.332Z,44.7496
2023-04-10T10:00:57.687Z,44.7060
2023-04-10T10:02:01.099Z,43.9632
2023-04-10T10:03:04.698Z,45.1096
2023-04-10T10:04:04.869Z,44.0558
2023-04-10T10:05:08.268Z,43.5164
2023-04-10T10:06:08.530Z,42.9075
2023-04-10T10:07:11.871Z,44.9992
2023-04-10T10:08:15.176Z,45.6109
2023-04-10T10:09:19.498Z,45.2468
2023-04-10T10:10:19.353Z,44.2804
2023-04-10T10:11:22.624Z,44.6550
2023-04-10T10:12:25.932Z,44.8553
2023-04-10T10:13:29.462Z,45.6946
2023-04-10T10:14:32.809Z,44.3853
2023-04-10T10:15:36.126Z,44.5207
2023-04-10T10:16:39.496Z,42.6305
2023-04-10T10:17:42.778Z,41.5507
2023-04-10T10:18:46.059Z,42.3017
2023-04-10T10:19:49.377Z,43.3685
2023-04-10T10:20:52.656Z,41.8391
2023-04-10T10:21:52.672Z,44.1943
2023-04-10T10:22:55.965Z,44.9985
2023-04-10T10:23:56.016Z,43.8338
2023-04-10T10:24:59.301Z,45.2157
2023-04-10T10:26:03.971Z,45.3894
2023-04-10T10:27:03.795Z,45.5728
2023-04-10T10:28:07.091Z,46.1552
2023-04-10T10:29:10.370Z,44.9914
2023-04-10T10:30:28.321Z,44.5226
2023-04-10T10:31:15.948Z,45.2551
2023-04-10T10:32:19.316Z,44.6611
2023-04-10T10:33:22.610Z,45.4465
2023-04-10T10:34:25.929Z,45.2566
2023-04-10T10:35:30.108Z,44.4116
2023-04-10T10:36:30.035Z,43.3688
2023-04-10T10:37:33.307Z,45.0457
2023-04-10T10:38:36.905Z,44.1803
2023-04-10T10:39:40.190Z,44.4179
2023-04-10T10:40:43.529Z,45.6486
2023-04-10T10:41:43.570Z,45.1187
2023-04-10T10:42:46.916Z,44.0410
2023-04-10T10:43:50.160Z,42.7207
2023-04-10T10:44:53.472Z,41.5580
2023-04-10T10:45:56.809Z,41.5455
2023-04-10T10:47:00.138Z,42.3324
2023-04-10T10:48:03.539Z,42.5734
2023-04-10T10:49:03.534Z,40.4890
2023-04-10T10:50:06.822Z,40.8487
2023-04-10T10:51:10.153Z,41.6442
2023-04-10T10:52:13.534Z,41.2193
2023-04-10T10:53:16.845Z,40.7498
2023-04-10T10:54:20.157Z,38.9532
2023-04-10T10:55:23.490Z,39.8333
2023-04-10T10:56:26.823Z,40.2005
2023-04-10T10:57:30.127Z,40.3742
2023-04-10T10:58:33.470Z,40.7043
2023-04-10T10:59:36.790Z,38.5673
2023-04-10T11:00:40.073Z,38.1977
2023-04-10T11:01:43.530Z,40.7893
2023-04-10T11:02:43.481Z,43.8358
2023-04-10T11:03:43.473Z,45.2745
2023-04-10T11:04:46.905Z,46.6310
2023-04-10T11:05:50.241Z,46.5881
2023-04-10T11:06:53.577Z,46.4932
2023-04-10T11:07:56.900Z,46.2834
2023-04-10T11:08:57.311Z,46.3190
2023-04-10T11:09:57.313Z,45.5747
2023-04-10T11:11:00.588Z,44.6437
2023-04-10T11:12:04.138Z,44.2184
2023-04-10T11:13:03.924Z,44.1880
2023-04-10T11:14:07.261Z,44.0519
2023-04-10T11:15:10.570Z,43.0645
2023-04-10T11:16:13.936Z,42.8393
2023-04-10T11:17:17.259Z,41.4453
2023-04-10T11:18:20.548Z,41.5319
2023-04-10T11:19:24.295Z,41.7834
2023-04-10T11:20:24.297Z,41.0485
2023-04-10T11:21:27.609Z,41.2558
2023-04-10T11:22:30.960Z,41.2840
2023-04-10T11:23:34.254Z,41.2885
2023-04-10T11:24:37.574Z,41.9293
2023-04-10T11:25:40.877Z,42.7261
2023-04-10T11:26:44.379Z,43.4757
2023-04-10T11:27:47.774Z,43.7462
2023-04-10T11:28:51.289Z,43.5159
2023-04-10T11:29:54.579Z,42.6939
2023-04-10T11:30:57.884Z,41.3233
2023-04-10T11:32:01.270Z,41.3910
2023-04-10T11:33:01.297Z,42.5202
2023-04-10T11:34:02.202Z,41.5847
2023-04-10T11:35:05.725Z,42.0217
2023-04-10T11:36:05.569Z,40.8957
2023-04-10T11:37:05.601Z,40.6850
2023-04-10T11:38:08.941Z,41.8577
2023-04-10T11:39:12.348Z,43.2432
2023-04-10T11:40:15.662Z,43.5093
2023-04-10T11:41:19.092Z,45.4241
2023-04-10T11:42:22.369Z,45.8840
2023-04-10T11:43:25.677Z,45.3118
2023-04-10T11:44:29.151Z,43.8599
2023-04-10T11:45:32.444Z,42.0495
2023-04-10T11:46:35.725Z,41.5806
2023-04-10T11:47:39.112Z,42.1400
2023-04-10T11:48:42.405Z,41.3738
2023-04-10T11:49:45.742Z,41.0503
2023-04-10T11:50:49.019Z,42.2296
2023-04-10T11:51:52.334Z,42.2347
2023-04-10T11:52:56.576Z,40.1572
2023-04-10T11:53:56.503Z,40.0170
2023-04-10T11:54:59.806Z,40.1231
2023-04-10T11:56:03.119Z,40.8797
2023-04-10T11:57:06.411Z,41.5261
2023-04-10T11:58:09.714Z,42.5656
2023-04-10T11:59:13.042Z,42.0383
2023-04-10T12:00:16.360Z,42.1550
2023-04-10T12:01:19.750Z,40.4751
2023-04-10T12:02:23.118Z,42.7175
2023-04-10T12:03:26.621Z,43.4673
2023-04-10T12:04:26.708Z,45.0495
2023-04-10T12:05:26.603Z,44.4774
2023-04-10T12:06:29.873Z,42.9102
2023-04-10T12:07:33.219Z,41.3136
2023-04-10T12:08:36.478Z,40.8385
2023-04-10T12:09:38.039Z,41.6551
2023-04-10T12:10:41.308Z,40.5852
2023-04-10T12:11:41.371Z,40.0370
2023-04-10T12:12:44.652Z,39.7375
2023-04-10T12:13:47.950Z,40.5814
2023-04-10T12:14:47.975Z,40.9864
2023-04-10T12:15:51.296Z,41.2105
2023-04-10T12:16:51.319Z,39.8855
2023-04-10T12:17:54.660Z,40.8556
2023-04-10T12:18:58.200Z,42.4016
2023-04-10T12:19:58.091Z,42.7298
2023-04-10T12:21:01.456Z,41.4117
2023-04-10T12:22:01.597Z,41.9923
2023-04-10T12:23:04.865Z,42.7226
2023-04-10T12:24:08.224Z,40.9880
2023-04-10T12:25:11.520Z,39.1382
2023-04-10T12:26:14.849Z,41.6424
2023-04-10T12:27:14.836Z,40.5372
2023-04-10T12:28:18.140Z,40.1717
2023-04-10T12:29:21.500Z,39.3543
2023-04-10T12:30:25.614Z,38.6385
2023-04-10T12:31:25.439Z,37.9088
2023-04-10T12:32:28.734Z,38.4076
2023-04-10T12:33:32.032Z,38.5770
2023-04-10T12:34:35.356Z,39.9787
2023-04-10T12:35:38.688Z,40.1681
2023-04-10T12:36:42.060Z,39.9729
2023-04-10T12:37:45.404Z,39.3704
2023-04-10T12:38:48.709Z,39.4789
2023-04-10T12:39:48.737Z,39.9287
2023-04-10T12:40:52.073Z,39.8715